Lowry, MN (56349)

12:16 PM CDT on July 25, 2014 (GMT -0500)
KMGK (Magic 107.1) FM (KMNGLENW1) Elev 1168 ft | 45.65 °N, 95.39 °W | Change Station

Current weather conditions updated 5 seconds ago

Mostly Cloudy
Mostly Cloudy
74.2 °F
Feels Like 74 °F
N
4.0
Wind Variable Wind from SW
Gusts 9.0 mph

Today is forecast to be Warmer than yesterday.

Today
High -- | Low -- °F
--% Chance of Precip.
Yesterday
High -- | Low -- °F
Precip. -- in
5:57 AM 8:59 PM
Waning Crescent, 1% visible
Pressure 29.80 in
Visibility 10.0 miles
Clouds Scattered Clouds 1800 ft
Heat Index 74 °F
Dew Point 68 °F
Humidity 82%
Rainfall 0.00 in
Snow Depth Not available.
UV 8 out of 12
Pollen 1.50 out of 12
Air Quality Not available.
Flu Activity Not available.
METAR KGHW 251714Z AUTO 21009KT 10SM SCT018 23/19 A2980 RMK AO2

More Conditions Fewer Conditions

Pressure 29.80 in
Visibility 10.0 miles
Clouds Scattered Clouds 1800 ft
Heat Index 74 °F
Dew Point 68 °F
Humidity 82%
Rainfall 0.00 in
Snow Depth Not available.
UV 8 out of 12
Pollen 1.50 out of 12
Air Quality Not available.
Flu Activity Not available.
METAR KGHW 251714Z AUTO 21009KT 10SM SCT018 23/19 A2980 RMK AO2

More Conditions Fewer Conditions

10-Day Weather Forecast

Almanac

Astronomy

Jul. 25, 2014 Rise Set
Actual Time 5:57 AM CDT 8:59 PM CDT
Civil Twilight 5:22 AM CDT 9:34 PM CDT
Nautical Twilight 4:36 AM CDT 10:19 PM CDT
Astronomical Twilight 3:41 AM CDT 11:13 PM CDT
Moon 4:59 AM CDT 7:53 PM CDT
Length of Visible Light 16h 12m
Length of Day
15h 01m
Tomorrow will be 2m 13s shorter.
Waning Crescent, 1% of the Moon is Illuminated
Today
Waning Crescent
Jul 26
New
Aug 3
First Quarter
Aug 10
Full
Aug 17
Last Quarter

Today's Extremes

State Highs State Lows

Community

WunderPhotos

Upload Photos

1,737,366 photos uploaded!

Nearby

Snow Depth

Station Depth Elevation
No new snow has been reported.

Earthquake Activity

City Distance Mag. Time & Date
No recent earthquake activity has been reported nearby.
Minimum magnitude displayed is 2.5.

Coastal Water Temperatures

Place Temperature
No Stations Reporting

Nearby Weather Stations

Station Location Temp. Heat Index Dew Point Humidity Wind Precip. Elev Updated Type
KMGK (Magic 107.1) FM, Glenwood, MN 74.2 °F 74 °F 68 °F 82% SW  at  4.0 mph 0.00 in / hr 1168 ft 12:16 PM CDT Rapid Fire
Hoffman MN, Hoffman, MN 75.9 °F 77 °F 69 °F 79% SSE  at  5.4 mph 0.00 in / hr 1240 ft 12:16 PM CDT Normal

Show More Stations Show Fewer Stations